createdAt,value
2022-08-22T00:00:11.549Z,94954.47
2022-08-22T00:02:39.912Z,94962.75
2022-08-22T00:02:41.977Z,94939.88
2022-08-22T00:02:45.270Z,94963.31
2022-08-22T00:02:56.593Z,94947.09
2022-08-22T00:02:57.619Z,94941.53
2022-08-22T00:03:00.886Z,94954.47
2022-08-22T00:05:06.373Z,94958.53
2022-08-22T00:07:32.766Z,94953.09
2022-08-22T00:09:59.135Z,94955.91
2022-08-22T00:12:25.557Z,94959.81
2022-08-22T00:14:51.978Z,94958.81
2022-08-22T00:17:18.379Z,94951.63
2022-08-22T00:19:44.775Z,94952.75
2022-08-22T00:22:11.166Z,94960.34
2022-08-22T00:24:37.602Z,94948.81
2022-08-22T00:27:03.994Z,94948.38
2022-08-22T00:29:30.393Z,94953.78
2022-08-22T00:31:59.268Z,94944.78
2022-08-22T00:34:26.498Z,94948.75
2022-08-22T00:36:52.963Z,94946.69
2022-08-22T00:39:19.378Z,94946.16
2022-08-22T00:41:45.875Z,94946.16
2022-08-22T00:44:12.288Z,94946.88
2022-08-22T00:46:38.699Z,94941.50
2022-08-22T00:49:05.141Z,94942.41
2022-08-22T00:51:31.550Z,94941.84
2022-08-22T00:53:57.959Z,94937.38
2022-08-22T00:56:24.351Z,94943.84
2022-08-22T00:58:50.745Z,94947.44
2022-08-22T01:01:17.194Z,94951.72
2022-08-22T01:03:45.954Z,94942.25
2022-08-22T01:06:12.344Z,94932.19
2022-08-22T01:08:38.787Z,94932.75
2022-08-22T01:11:05.206Z,94929.88
2022-08-22T01:13:31.611Z,94925.22
2022-08-22T01:15:58.034Z,94929.50
2022-08-22T01:18:24.506Z,94932.00
2022-08-22T01:20:50.899Z,94926.44
2022-08-22T01:23:17.309Z,94922.63
2022-08-22T01:25:43.697Z,94927.72
2022-08-22T01:28:10.111Z,94924.38
2022-08-22T01:30:37.497Z,94920.78
2022-08-22T01:33:03.891Z,94922.69
2022-08-22T01:35:30.304Z,94919.72
2022-08-22T01:37:56.916Z,94909.41
2022-08-22T01:40:23.812Z,94913.34
2022-08-22T01:42:50.259Z,94909.91
2022-08-22T01:45:16.649Z,94909.81
2022-08-22T01:47:43.069Z,94912.59
2022-08-22T01:50:09.474Z,94905.72
2022-08-22T01:52:35.886Z,94904.69
2022-08-22T01:55:02.312Z,94910.56
2022-08-22T01:57:28.722Z,94911.88
2022-08-22T01:59:55.129Z,94905.16
2022-08-22T02:02:23.928Z,94909.97
2022-08-22T02:04:50.336Z,94901.16
2022-08-22T02:07:17.843Z,94904.59
2022-08-22T02:09:44.339Z,94894.91
2022-08-22T02:12:21.384Z,94898.63
2022-08-22T02:14:48.490Z,94895.94
2022-08-22T02:17:14.933Z,94897.88
2022-08-22T02:19:41.326Z,94893.72
2022-08-22T02:22:07.716Z,94896.22
2022-08-22T02:24:34.127Z,94894.16
2022-08-22T02:27:00.531Z,94891.91
2022-08-22T02:29:26.924Z,94890.28
2022-08-22T02:31:53.329Z,94891.28
2022-08-22T02:34:21.440Z,94896.69
2022-08-22T02:36:47.857Z,94886.19
2022-08-22T02:39:14.279Z,94885.25
2022-08-22T02:41:40.667Z,94883.31
2022-08-22T02:44:07.070Z,94879.69
2022-08-22T02:46:33.723Z,94885.16
2022-08-22T02:49:00.121Z,94875.31
2022-08-22T02:51:26.511Z,94879.06
2022-08-22T02:53:52.918Z,94871.16
2022-08-22T02:56:19.367Z,94869.38
2022-08-22T02:58:45.808Z,94867.34
2022-08-22T03:01:12.268Z,94856.00
2022-08-22T03:03:41.838Z,94868.25
2022-08-22T03:06:08.242Z,94856.91
2022-08-22T03:08:34.652Z,94859.78
2022-08-22T03:11:02.028Z,94863.69
2022-08-22T03:13:28.433Z,94860.88
2022-08-22T03:15:54.864Z,94860.31
2022-08-22T03:18:21.292Z,94857.59
2022-08-22T03:20:47.893Z,94857.31
2022-08-22T03:23:14.310Z,94863.00
2022-08-22T03:25:40.737Z,94855.66
2022-08-22T03:28:07.125Z,94847.16
2022-08-22T03:30:33.614Z,94845.31
2022-08-22T03:32:59.992Z,94838.16
2022-08-22T03:35:26.377Z,94846.31
2022-08-22T03:37:52.860Z,94840.81
2022-08-22T03:40:19.355Z,94841.66
2022-08-22T03:42:45.805Z,94839.44
2022-08-22T03:45:12.220Z,94847.34
2022-08-22T03:47:38.621Z,94841.94
2022-08-22T03:50:05.009Z,94840.41
2022-08-22T03:52:31.503Z,94846.94
2022-08-22T03:54:57.883Z,94845.50
2022-08-22T03:57:24.296Z,94849.38
2022-08-22T03:59:50.703Z,94847.31
2022-08-22T04:02:41.998Z,94846.13
2022-08-22T04:05:03.754Z,94853.44
2022-08-22T04:07:32.382Z,94852.25
2022-08-22T04:09:59.865Z,94848.22
2022-08-22T04:12:26.366Z,94847.38
2022-08-22T04:14:52.768Z,94854.41
2022-08-22T04:17:19.174Z,94857.22
2022-08-22T04:19:45.570Z,94855.28
2022-08-22T04:22:11.966Z,94858.13
2022-08-22T04:24:38.382Z,94854.41
2022-08-22T04:27:04.773Z,94856.63
2022-08-22T04:29:31.178Z,94852.16
2022-08-22T04:31:57.595Z,94858.00
2022-08-22T04:34:23.970Z,94859.66
2022-08-22T04:36:50.384Z,94864.19
2022-08-22T04:39:16.786Z,94864.19
2022-08-22T04:41:43.199Z,94863.38
2022-08-22T04:44:09.589Z,94856.63
2022-08-22T04:46:37.459Z,94859.03
2022-08-22T04:49:03.899Z,94860.69
2022-08-22T04:51:30.313Z,94860.91
2022-08-22T04:53:58.555Z,94864.09
2022-08-22T04:56:24.942Z,94874.84
2022-08-22T04:58:51.348Z,94873.94
2022-08-22T05:01:17.885Z,94882.44
2022-08-22T05:03:45.052Z,94883.38
2022-08-22T05:06:11.498Z,94888.47
2022-08-22T05:08:37.902Z,94887.44
2022-08-22T05:11:06.014Z,94891.03
2022-08-22T05:13:32.442Z,94897.63
2022-08-22T05:15:58.839Z,94908.22
2022-08-22T05:18:29.480Z,94908.88
2022-08-22T05:20:56.350Z,94902.75
2022-08-22T05:23:22.772Z,94912.44
2022-08-22T05:25:49.172Z,94921.38
2022-08-22T05:28:16.121Z,94917.34
2022-08-22T05:30:42.542Z,94913.28
2022-08-22T05:33:08.982Z,94919.78
2022-08-22T05:35:35.400Z,94923.22
2022-08-22T05:38:01.784Z,94920.25
2022-08-22T05:40:28.168Z,94916.41
2022-08-22T05:42:55.582Z,94925.38
2022-08-22T05:45:21.996Z,94922.25
2022-08-22T05:47:48.437Z,94930.78
2022-08-22T05:50:14.922Z,94923.19
2022-08-22T05:52:41.292Z,94927.38
2022-08-22T05:55:07.670Z,94931.03
2022-08-22T05:57:34.138Z,94926.84
2022-08-22T06:00:00.537Z,94925.16
2022-08-22T06:02:26.935Z,94925.22
2022-08-22T06:04:53.552Z,94924.25
2022-08-22T06:07:20.718Z,94926.38
2022-08-22T06:09:49.322Z,94922.31
2022-08-22T06:12:21.951Z,94921.91
2022-08-22T06:14:49.326Z,94923.97
2022-08-22T06:17:15.704Z,94923.22
2022-08-22T06:19:42.116Z,94923.34
2022-08-22T06:22:08.526Z,94932.84
2022-08-22T06:24:34.921Z,94923.16
2022-08-22T06:27:01.332Z,94926.63
2022-08-22T06:29:27.728Z,94930.06
2022-08-22T06:31:54.333Z,94929.94
2022-08-22T06:34:20.855Z,94937.06
2022-08-22T06:36:47.309Z,94940.13
2022-08-22T06:39:15.101Z,94937.47
2022-08-22T06:41:41.577Z,94940.72
2022-08-22T06:44:08.067Z,94949.69
2022-08-22T06:46:34.459Z,94953.31
2022-08-22T06:49:00.870Z,94948.53
2022-08-22T06:51:27.278Z,94947.66
2022-08-22T06:53:53.677Z,94960.50
2022-08-22T06:56:20.065Z,94948.50
2022-08-22T06:58:46.511Z,94953.78
2022-08-22T07:01:14.005Z,94950.91
2022-08-22T07:03:40.400Z,94940.75
2022-08-22T07:06:06.815Z,94937.50
2022-08-22T07:08:38.503Z,94933.44
2022-08-22T07:11:05.493Z,94938.91
2022-08-22T07:13:32.471Z,94952.88
2022-08-22T07:15:58.958Z,94950.09
2022-08-22T07:18:25.340Z,94954.19
2022-08-22T07:20:55.000Z,94948.03
2022-08-22T07:23:21.656Z,94951.09
2022-08-22T07:25:48.126Z,94953.88
2022-08-22T07:28:15.913Z,94952.34
2022-08-22T07:30:42.703Z,94958.66
2022-08-22T07:33:26.047Z,94956.22
2022-08-22T07:35:53.875Z,94952.28
2022-08-22T07:38:20.312Z,94952.25
2022-08-22T07:40:46.826Z,94955.06
2022-08-22T07:43:13.297Z,94948.50
2022-08-22T07:45:39.737Z,94951.97
2022-08-22T07:48:06.148Z,94952.63
2022-08-22T07:50:32.543Z,94960.66
2022-08-22T07:52:58.940Z,94954.78
2022-08-22T07:55:25.342Z,94953.28
2022-08-22T07:57:51.726Z,94945.53
2022-08-22T08:00:18.122Z,94939.44
2022-08-22T08:02:44.550Z,94940.19
2022-08-22T08:05:10.945Z,94937.97
2022-08-22T08:07:37.336Z,94945.41
2022-08-22T08:10:03.773Z,94940.00
2022-08-22T08:12:30.199Z,94939.75
2022-08-22T08:14:56.605Z,94933.16
2022-08-22T08:17:23.008Z,94936.31
2022-08-22T08:19:49.406Z,94943.31
2022-08-22T08:22:15.825Z,94935.03
2022-08-22T08:24:44.800Z,94941.38
2022-08-22T08:27:13.172Z,94945.63
2022-08-22T08:29:39.565Z,94951.53
2022-08-22T08:32:05.955Z,94948.16
2022-08-22T08:34:32.417Z,94942.63
2022-08-22T08:37:01.183Z,94947.56
2022-08-22T08:39:28.584Z,94932.16
2022-08-22T08:42:01.864Z,94940.53
2022-08-22T08:44:28.292Z,94937.94
2022-08-22T08:46:55.894Z,94944.47
2022-08-22T08:49:23.946Z,94942.00
2022-08-22T08:51:50.690Z,94941.66
2022-08-22T08:54:17.080Z,94947.50
2022-08-22T08:59:30.184Z,94947.31
2022-08-22T09:01:57.078Z,94947.88
2022-08-22T09:04:24.276Z,94948.13
2022-08-22T09:06:53.841Z,94937.25
2022-08-22T09:09:23.220Z,94935.75
2022-08-22T09:11:49.618Z,94931.53
2022-08-22T09:14:16.048Z,94938.72
2022-08-22T09:16:45.029Z,94932.41
2022-08-22T09:19:12.709Z,94935.19
2022-08-22T09:21:39.083Z,94938.00
2022-08-22T09:24:05.477Z,94923.28
2022-08-22T09:26:31.892Z,94914.72
2022-08-22T09:29:00.243Z,94922.38
2022-08-22T09:31:32.981Z,94909.78
2022-08-22T09:34:13.048Z,94911.84
2022-08-22T09:36:42.883Z,94915.31
2022-08-22T09:39:09.370Z,94912.88
2022-08-22T09:40:15.240Z,94945.75
2022-08-22T09:41:35.790Z,94905.81
2022-08-22T09:44:02.168Z,94910.75
2022-08-22T09:46:32.279Z,94914.72
2022-08-22T09:49:05.435Z,94909.91
2022-08-22T09:51:33.485Z,94920.78
2022-08-22T09:53:59.940Z,94919.75
2022-08-22T09:56:29.006Z,94918.47
2022-08-22T09:58:56.919Z,94924.25
2022-08-22T10:01:32.871Z,94921.25
2022-08-22T10:04:00.786Z,94918.38
2022-08-22T10:06:27.169Z,94915.69
2022-08-22T10:08:53.592Z,94919.94
2022-08-22T10:11:19.980Z,94919.44
2022-08-22T10:13:46.387Z,94909.78
2022-08-22T10:16:12.948Z,94927.06
2022-08-22T10:18:42.150Z,94923.41
2022-08-22T10:21:19.032Z,94924.63
2022-08-22T10:23:47.189Z,94916.34
2022-08-22T10:26:22.839Z,94914.91
2022-08-22T10:28:52.159Z,94918.72
2022-08-22T10:31:18.750Z,94909.66
2022-08-22T10:33:46.519Z,94903.13
2022-08-22T10:36:13.620Z,94906.09
2022-08-22T10:38:46.136Z,94899.56
2022-08-22T10:41:13.194Z,94899.38
2022-08-22T10:43:41.985Z,94900.34
2022-08-22T10:46:12.699Z,94894.69
2022-08-22T10:48:40.287Z,94899.47
2022-08-22T10:51:08.833Z,94885.09
2022-08-22T10:53:36.319Z,94887.31
2022-08-22T10:56:02.709Z,94887.84
2022-08-22T10:58:29.245Z,94887.34
2022-08-22T11:00:55.746Z,94880.81
2022-08-22T11:03:23.453Z,94886.84
2022-08-22T11:05:52.443Z,94889.88
2022-08-22T11:08:19.023Z,94895.97
2022-08-22T11:10:47.291Z,94892.28
2022-08-22T11:13:13.825Z,94888.06
2022-08-22T11:15:40.269Z,94890.06
2022-08-22T11:18:06.951Z,94893.75
2022-08-22T11:20:39.349Z,94887.38
2022-08-22T11:23:07.294Z,94880.69
2022-08-22T11:25:38.730Z,94878.22
2022-08-22T11:28:05.615Z,94876.97
2022-08-22T11:30:32.045Z,94881.88
2022-08-22T11:33:04.709Z,94865.28
2022-08-22T11:35:33.959Z,94873.38
2022-08-22T11:38:03.098Z,94867.44
2022-08-22T11:40:29.722Z,94873.34
2022-08-22T11:42:56.178Z,94863.81
2022-08-22T11:45:25.492Z,94861.34
2022-08-22T11:47:53.738Z,94862.75
2022-08-22T11:50:20.360Z,94859.75
2022-08-22T11:52:51.925Z,94863.22
2022-08-22T11:55:18.493Z,94853.91
2022-08-22T11:57:45.090Z,94856.31
2022-08-22T12:00:11.571Z,94849.81
2022-08-22T12:02:38.191Z,94852.09
2022-08-22T12:05:04.597Z,94857.47
2022-08-22T12:07:32.124Z,94853.13
2022-08-22T12:09:59.312Z,94858.97
2022-08-22T12:12:25.731Z,94848.53
2022-08-22T12:14:52.123Z,94846.44
2022-08-22T12:17:28.547Z,94845.25
2022-08-22T12:20:16.887Z,94845.16
2022-08-22T12:22:45.868Z,94851.28
2022-08-22T12:25:16.504Z,94850.69
2022-08-22T12:27:48.270Z,94840.06
2022-08-22T12:30:21.541Z,94847.88
2022-08-22T12:32:48.970Z,94848.50
2022-08-22T12:35:15.620Z,94848.06
2022-08-22T12:37:52.235Z,94845.56
2022-08-22T12:40:20.594Z,94835.25
2022-08-22T12:42:53.495Z,94833.47
2022-08-22T12:45:20.026Z,94832.16
2022-08-22T12:47:49.628Z,94830.22
2022-08-22T12:50:16.909Z,94834.03
2022-08-22T12:52:44.290Z,94828.94
2022-08-22T12:55:10.811Z,94832.97
2022-08-22T12:57:37.533Z,94822.59
2022-08-22T13:00:03.938Z,94826.88
2022-08-22T13:02:30.649Z,94824.38
2022-08-22T13:04:57.059Z,94824.00
2022-08-22T13:07:23.456Z,94820.63
2022-08-22T13:09:49.843Z,94822.63
2022-08-22T13:12:20.083Z,94823.56
2022-08-22T13:14:47.524Z,94823.72
2022-08-22T13:17:25.003Z,94814.78
2022-08-22T13:19:52.064Z,94821.75
2022-08-22T13:22:18.486Z,94817.16
2022-08-22T13:24:51.716Z,94815.19
2022-08-22T13:27:20.333Z,94814.78
2022-08-22T13:29:46.951Z,94813.59
2022-08-22T13:32:15.642Z,94810.34
2022-08-22T13:34:43.725Z,94811.88
2022-08-22T13:37:10.284Z,94809.69
2022-08-22T13:39:37.837Z,94809.56
2022-08-22T13:42:04.327Z,94807.78
2022-08-22T13:44:40.851Z,94806.97
2022-08-22T13:47:14.320Z,94799.00
2022-08-22T13:49:41.242Z,94796.16
2022-08-22T13:52:14.427Z,94796.84
2022-08-22T13:54:54.014Z,94804.25
2022-08-22T13:57:20.398Z,94792.91
2022-08-22T13:59:53.599Z,94801.94
2022-08-22T14:02:21.285Z,94797.31
2022-08-22T14:04:48.745Z,94795.19
2022-08-22T14:07:15.119Z,94791.84
2022-08-22T14:09:41.542Z,94789.56
2022-08-22T14:12:07.928Z,94787.84
2022-08-22T14:14:38.262Z,94785.13
2022-08-22T14:17:04.664Z,94781.44
2022-08-22T14:19:31.314Z,94786.97
2022-08-22T14:22:04.740Z,94785.38
2022-08-22T14:24:31.123Z,94780.34
2022-08-22T14:26:57.941Z,94778.25
2022-08-22T14:29:24.487Z,94777.97
2022-08-22T14:31:50.945Z,94780.28
2022-08-22T14:34:19.930Z,94787.72
2022-08-22T14:36:49.413Z,94779.03
2022-08-22T14:39:15.803Z,94785.72
2022-08-22T14:41:56.010Z,94790.59
2022-08-22T14:44:23.647Z,94789.03
2022-08-22T14:46:51.209Z,94786.56
2022-08-22T14:49:17.638Z,94793.91
2022-08-22T14:51:44.284Z,94786.34
2022-08-22T14:54:10.711Z,94787.00
2022-08-22T14:56:40.591Z,94783.66
2022-08-22T14:59:10.152Z,94785.94
2022-08-22T15:01:41.249Z,94793.06
2022-08-22T15:04:08.046Z,94790.47
2022-08-22T15:06:34.449Z,94782.78
2022-08-22T15:09:02.056Z,94782.19
2022-08-22T15:11:34.497Z,94777.53
2022-08-22T15:14:02.529Z,94777.13
2022-08-22T15:16:31.256Z,94771.25
2022-08-22T15:18:58.215Z,94781.66
2022-08-22T15:21:24.814Z,94776.53
2022-08-22T15:23:51.257Z,94770.13
2022-08-22T15:26:17.699Z,94775.59
2022-08-22T15:28:52.538Z,94764.34
2022-08-22T15:31:19.649Z,94773.78
2022-08-22T15:33:46.110Z,94776.19
2022-08-22T15:36:12.687Z,94764.03
2022-08-22T15:38:42.401Z,94760.38
2022-08-22T15:41:14.483Z,94764.75
2022-08-22T15:43:41.534Z,94766.66
2022-08-22T15:48:52.463Z,94760.22
2022-08-22T15:51:18.918Z,94757.34
2022-08-22T15:53:48.157Z,94757.97
2022-08-22T15:56:17.416Z,94753.03
2022-08-22T15:58:48.768Z,94756.81
2022-08-22T16:01:19.937Z,94758.16
2022-08-22T16:03:47.065Z,94755.66
2022-08-22T16:06:13.478Z,94762.25
2022-08-22T16:08:39.859Z,94759.94
2022-08-22T16:11:06.262Z,94760.31
2022-08-22T16:13:32.639Z,94760.31
2022-08-22T16:15:59.040Z,94763.78
2022-08-22T16:18:25.443Z,94760.50
2022-08-22T16:20:51.895Z,94755.91
2022-08-22T16:23:18.302Z,94764.13
2022-08-22T16:25:44.686Z,94758.25
2022-08-22T16:28:11.062Z,94754.13
2022-08-22T16:30:37.498Z,94752.16
2022-08-22T16:33:04.980Z,94753.72
2022-08-22T16:35:31.374Z,94756.00
2022-08-22T16:37:57.823Z,94759.88
2022-08-22T16:40:24.376Z,94754.72
2022-08-22T16:42:50.790Z,94756.59
2022-08-22T16:45:17.170Z,94755.09
2022-08-22T16:47:43.561Z,94760.50
2022-08-22T16:50:19.194Z,94763.16
2022-08-22T16:52:48.709Z,94764.13
2022-08-22T16:55:15.087Z,94758.97
2022-08-22T16:57:54.406Z,94765.63
2022-08-22T17:00:25.950Z,94755.09
2022-08-22T17:02:52.392Z,94757.81
2022-08-22T17:05:18.777Z,94771.97
2022-08-22T17:07:45.150Z,94769.66
2022-08-22T17:10:12.529Z,94773.34
2022-08-22T17:12:39.083Z,94772.28
2022-08-22T17:15:05.550Z,94775.59
2022-08-22T17:17:31.942Z,94781.41
2022-08-22T17:19:58.327Z,94784.31
2022-08-22T17:22:28.477Z,94779.00
2022-08-22T17:24:55.485Z,94784.06
2022-08-22T17:27:21.883Z,94781.72
2022-08-22T17:29:48.260Z,94777.72
2022-08-22T17:32:14.662Z,94775.00
2022-08-22T17:34:41.064Z,94789.38
2022-08-22T17:37:07.468Z,94789.66
2022-08-22T17:39:33.846Z,94790.75
2022-08-22T17:42:00.223Z,94793.34
2022-08-22T17:44:26.629Z,94787.81
2022-08-22T17:46:53.005Z,94792.91
2022-08-22T17:49:19.401Z,94798.28
2022-08-22T17:51:45.771Z,94790.47
2022-08-22T17:54:12.150Z,94792.25
2022-08-22T17:56:38.526Z,94792.56
2022-08-22T17:59:04.922Z,94802.75
2022-08-22T18:01:31.343Z,94809.50
2022-08-22T18:03:57.789Z,94810.56
2022-08-22T18:06:24.173Z,94811.41
2022-08-22T18:11:38.973Z,94817.09
2022-08-22T18:14:06.735Z,94819.66
2022-08-22T18:16:33.148Z,94814.44
2022-08-22T18:18:59.578Z,94824.34
2022-08-22T18:21:25.954Z,94823.63
2022-08-22T18:23:52.330Z,94831.81
2022-08-22T18:26:18.744Z,94832.53
2022-08-22T18:28:45.194Z,94835.72
2022-08-22T18:31:11.646Z,94827.84
2022-08-22T18:33:38.059Z,94835.75
2022-08-22T18:36:04.786Z,94829.34
2022-08-22T18:38:31.279Z,94831.06
2022-08-22T18:40:57.689Z,94832.78
2022-08-22T18:43:24.202Z,94837.97
2022-08-22T18:45:50.660Z,94837.72
2022-08-22T18:48:17.045Z,94832.53
2022-08-22T18:50:43.425Z,94834.50
2022-08-22T18:53:09.851Z,94838.22
2022-08-22T18:55:38.082Z,94840.69
2022-08-22T18:58:04.472Z,94846.59
2022-08-22T19:00:30.859Z,94839.91
2022-08-22T19:02:57.329Z,94847.78
2022-08-22T19:05:23.766Z,94840.63
2022-08-22T19:07:50.157Z,94848.28
2022-08-22T19:10:16.609Z,94850.97
2022-08-22T19:12:43.010Z,94851.22
2022-08-22T19:15:09.421Z,94858.59
2022-08-22T19:17:35.810Z,94859.06
2022-08-22T19:20:02.222Z,94857.34
2022-08-22T19:22:28.643Z,94854.88
2022-08-22T19:24:55.051Z,94861.00
2022-08-22T19:27:21.461Z,94859.53
2022-08-22T19:29:47.842Z,94865.22
2022-08-22T19:32:14.265Z,94861.03
2022-08-22T19:34:40.652Z,94858.31
2022-08-22T19:37:07.045Z,94868.41
2022-08-22T19:39:36.001Z,94867.66
2022-08-22T19:42:02.430Z,94862.25
2022-08-22T19:44:28.811Z,94869.88
2022-08-22T19:46:55.225Z,94864.47
2022-08-22T19:49:21.708Z,94869.41
2022-08-22T19:51:48.111Z,94866.69
2022-08-22T19:54:16.670Z,94863.47
2022-08-22T19:56:43.369Z,94867.69
2022-08-22T19:59:09.798Z,94869.41
2022-08-22T20:01:36.267Z,94867.91
2022-08-22T20:04:02.696Z,94871.06
2022-08-22T20:06:43.569Z,94870.59
2022-08-22T20:09:10.638Z,94867.56
2022-08-22T20:11:37.016Z,94870.94
2022-08-22T20:14:03.404Z,94876.13
2022-08-22T20:16:29.798Z,94873.16
2022-08-22T20:19:06.627Z,94874.41
2022-08-22T20:21:38.697Z,94870.72
2022-08-22T20:24:05.628Z,94879.31
2022-08-22T20:26:32.051Z,94873.13
2022-08-22T20:28:58.422Z,94871.16
2022-08-22T20:31:25.923Z,94870.63
2022-08-22T20:33:52.303Z,94876.31
2022-08-22T20:36:28.535Z,94873.03
2022-08-22T20:38:56.152Z,94875.00
2022-08-22T20:41:22.751Z,94869.59
2022-08-22T20:43:49.210Z,94879.19
2022-08-22T20:46:15.831Z,94877.69
2022-08-22T20:48:42.212Z,94877.13
2022-08-22T20:51:08.591Z,94871.97
2022-08-22T20:53:34.991Z,94876.41
2022-08-22T20:56:01.410Z,94873.44
2022-08-22T20:58:27.810Z,94873.94
2022-08-22T21:00:56.093Z,94881.06
2022-08-22T21:03:22.594Z,94881.75
2022-08-22T21:05:48.978Z,94880.19
2022-08-22T21:08:15.375Z,94880.72
2022-08-22T21:10:41.760Z,94880.47
2022-08-22T21:13:08.157Z,94883.69
2022-08-22T21:15:34.543Z,94879.56
2022-08-22T21:18:01.088Z,94880.06
2022-08-22T21:20:27.663Z,94875.81
2022-08-22T21:22:54.044Z,94881.25
2022-08-22T21:25:20.449Z,94877.22
2022-08-22T21:27:46.827Z,94891.00
2022-08-22T21:30:13.256Z,94884.66
2022-08-22T21:32:39.663Z,94884.84
2022-08-22T21:35:06.071Z,94880.19
2022-08-22T21:37:32.471Z,94882.88
2022-08-22T21:39:58.925Z,94882.22
2022-08-22T21:42:25.320Z,94876.25
2022-08-22T21:44:51.735Z,94875.13
2022-08-22T21:47:19.179Z,94878.56
2022-08-22T21:49:57.751Z,94880.78
2022-08-22T21:52:24.145Z,94878.66
2022-08-22T21:54:50.557Z,94883.38
2022-08-22T21:57:16.958Z,94881.13
2022-08-22T21:59:51.992Z,94883.97
2022-08-22T22:02:25.578Z,94884.91
2022-08-22T22:04:53.825Z,94878.00
2022-08-22T22:07:20.240Z,94876.94
2022-08-22T22:09:47.205Z,94883.09
2022-08-22T22:12:21.413Z,94876.84
2022-08-22T22:14:47.810Z,94884.72
2022-08-22T22:17:14.196Z,94885.19
2022-08-22T22:19:40.584Z,94882.69
2022-08-22T22:22:08.316Z,94884.22
2022-08-22T22:24:34.704Z,94884.59
2022-08-22T22:27:01.122Z,94891.91
2022-08-22T22:29:27.525Z,94888.94
2022-08-22T22:31:53.921Z,94890.75
2022-08-22T22:34:20.331Z,94898.81
2022-08-22T22:36:46.736Z,94899.94
2022-08-22T22:39:13.111Z,94909.28
2022-08-22T22:41:39.526Z,94905.09
2022-08-22T22:44:05.909Z,94908.44
2022-08-22T22:46:32.313Z,94912.88
2022-08-22T22:48:58.701Z,94922.22
2022-08-22T22:51:25.087Z,94920.72
2022-08-22T22:53:51.496Z,94927.63
2022-08-22T22:56:17.984Z,94926.34
2022-08-22T22:58:50.009Z,94933.53
2022-08-22T23:01:16.482Z,94928.19
2022-08-22T23:03:42.931Z,94935.00
2022-08-22T23:06:09.354Z,94932.22
2022-08-22T23:08:35.768Z,94927.38
2022-08-22T23:11:02.169Z,94923.59
2022-08-22T23:13:28.538Z,94927.22
2022-08-22T23:15:54.931Z,94929.81
2022-08-22T23:18:21.315Z,94931.44
2022-08-22T23:20:56.811Z,94931.56
2022-08-22T23:23:23.207Z,94937.22
2022-08-22T23:25:49.601Z,94937.63
2022-08-22T23:28:16.032Z,94934.94
2022-08-22T23:30:42.460Z,94927.91
2022-08-22T23:33:08.859Z,94925.22
2022-08-22T23:35:35.284Z,94924.19
2022-08-22T23:38:01.819Z,94926.69
2022-08-22T23:40:28.333Z,94927.38
2022-08-22T23:42:54.798Z,94931.97
2022-08-22T23:45:22.602Z,94924.88
2022-08-22T23:47:48.995Z,94933.34
2022-08-22T23:50:15.412Z,94934.56
2022-08-22T23:52:41.805Z,94925.09
2022-08-22T23:55:08.171Z,94933.03
2022-08-22T23:57:34.547Z,94933.44
